sensor_id;sensor_type;location;lat;lon;timestamp;P1;durP1;ratioP1;P2;durP2;ratioP2
15112;SDS011;7657;50.140;7.076;2023-03-12T00:00:37;25.30;;;13.53;;
15112;SDS011;7657;50.140;7.076;2023-03-12T00:03:04;18.53;;;9.70;;
15112;SDS011;7657;50.140;7.076;2023-03-12T00:05:31;17.53;;;8.97;;
15112;SDS011;7657;50.140;7.076;2023-03-12T00:07:59;13.40;;;6.37;;
15112;SDS011;7657;50.140;7.076;2023-03-12T00:10:27;8.77;;;4.83;;
15112;SDS011;7657;50.140;7.076;2023-03-12T00:12:54;7.53;;;3.87;;
15112;SDS011;7657;50.140;7.076;2023-03-12T00:15:21;7.33;;;3.73;;
15112;SDS011;7657;50.140;7.076;2023-03-12T00:17:48;4.83;;;3.17;;
15112;SDS011;7657;50.140;7.076;2023-03-12T00:20:15;7.20;;;2.97;;
15112;SDS011;7657;50.140;7.076;2023-03-12T00:22:43;7.87;;;4.87;;
15112;SDS011;7657;50.140;7.076;2023-03-12T00:25:10;9.43;;;3.77;;
15112;SDS011;7657;50.140;7.076;2023-03-12T00:27:41;10.80;;;5.67;;
15112;SDS011;7657;50.140;7.076;2023-03-12T00:30:09;6.40;;;3.20;;
15112;SDS011;7657;50.140;7.076;2023-03-12T00:32:37;5.53;;;3.33;;
15112;SDS011;7657;50.140;7.076;2023-03-12T00:35:04;8.03;;;3.67;;
15112;SDS011;7657;50.140;7.076;2023-03-12T00:37:32;8.37;;;3.00;;
15112;SDS011;7657;50.140;7.076;2023-03-12T00:39:59;5.53;;;3.37;;
15112;SDS011;7657;50.140;7.076;2023-03-12T00:42:28;4.40;;;2.73;;
15112;SDS011;7657;50.140;7.076;2023-03-12T00:44:57;4.33;;;2.77;;
15112;SDS011;7657;50.140;7.076;2023-03-12T00:47:24;5.07;;;2.70;;
15112;SDS011;7657;50.140;7.076;2023-03-12T00:49:50;3.97;;;2.60;;
15112;SDS011;7657;50.140;7.076;2023-03-12T00:52:17;5.30;;;2.43;;
15112;SDS011;7657;50.140;7.076;2023-03-12T00:54:44;4.23;;;2.17;;
15112;SDS011;7657;50.140;7.076;2023-03-12T00:57:11;5.67;;;2.20;;
15112;SDS011;7657;50.140;7.076;2023-03-12T00:59:38;3.80;;;2.07;;
15112;SDS011;7657;50.140;7.076;2023-03-12T01:02:07;4.13;;;1.63;;
15112;SDS011;7657;50.140;7.076;2023-03-12T01:04:34;4.03;;;1.87;;
15112;SDS011;7657;50.140;7.076;2023-03-12T01:07:01;3.40;;;1.87;;
15112;SDS011;7657;50.140;7.076;2023-03-12T01:09:28;3.87;;;1.60;;
15112;SDS011;7657;50.140;7.076;2023-03-12T01:11:55;2.47;;;1.47;;
15112;SDS011;7657;50.140;7.076;2023-03-12T01:14:22;2.53;;;1.80;;
15112;SDS011;7657;50.140;7.076;2023-03-12T01:16:49;4.47;;;1.70;;
15112;SDS011;7657;50.140;7.076;2023-03-12T01:19:17;3.73;;;1.40;;
15112;SDS011;7657;50.140;7.076;2023-03-12T01:21:44;4.13;;;1.83;;
15112;SDS011;7657;50.140;7.076;2023-03-12T01:24:11;4.00;;;1.53;;
15112;SDS011;7657;50.140;7.076;2023-03-12T01:26:38;4.23;;;2.00;;
15112;SDS011;7657;50.140;7.076;2023-03-12T01:29:04;5.27;;;1.70;;
15112;SDS011;7657;50.140;7.076;2023-03-12T01:31:31;3.70;;;1.73;;
15112;SDS011;7657;50.140;7.076;2023-03-12T01:33:58;4.67;;;2.00;;
15112;SDS011;7657;50.140;7.076;2023-03-12T01:36:27;3.73;;;2.03;;
15112;SDS011;7657;50.140;7.076;2023-03-12T01:38:55;5.03;;;1.50;;
15112;SDS011;7657;50.140;7.076;2023-03-12T01:41:24;5.23;;;2.00;;
15112;SDS011;7657;50.140;7.076;2023-03-12T01:43:52;2.83;;;1.73;;
15112;SDS011;7657;50.140;7.076;2023-03-12T01:46:23;3.37;;;1.80;;
15112;SDS011;7657;50.140;7.076;2023-03-12T01:48:56;3.43;;;1.60;;
15112;SDS011;7657;50.140;7.076;2023-03-12T01:51:29;3.50;;;1.40;;
15112;SDS011;7657;50.140;7.076;2023-03-12T01:53:58;3.90;;;1.80;;
15112;SDS011;7657;50.140;7.076;2023-03-12T01:56:29;4.30;;;1.70;;
15112;SDS011;7657;50.140;7.076;2023-03-12T01:59:02;3.70;;;1.57;;
15112;SDS011;7657;50.140;7.076;2023-03-12T02:01:32;4.97;;;1.60;;
15112;SDS011;7657;50.140;7.076;2023-03-12T02:03:59;5.30;;;2.03;;
15112;SDS011;7657;50.140;7.076;2023-03-12T02:06:29;5.47;;;1.53;;
15112;SDS011;7657;50.140;7.076;2023-03-12T02:09:02;3.00;;;1.63;;
15112;SDS011;7657;50.140;7.076;2023-03-12T02:11:31;6.13;;;1.80;;
15112;SDS011;7657;50.140;7.076;2023-03-12T02:13:58;5.43;;;1.83;;
15112;SDS011;7657;50.140;7.076;2023-03-12T02:16:25;2.70;;;1.60;;
15112;SDS011;7657;50.140;7.076;2023-03-12T02:18:52;3.20;;;1.60;;
15112;SDS011;7657;50.140;7.076;2023-03-12T02:21:22;3.90;;;1.73;;
15112;SDS011;7657;50.140;7.076;2023-03-12T02:23:54;3.20;;;1.50;;
15112;SDS011;7657;50.140;7.076;2023-03-12T02:26:27;4.00;;;1.57;;
15112;SDS011;7657;50.140;7.076;2023-03-12T02:28:55;3.67;;;1.40;;
15112;SDS011;7657;50.140;7.076;2023-03-12T02:31:26;4.83;;;1.60;;
15112;SDS011;7657;50.140;7.076;2023-03-12T02:33:57;2.80;;;1.53;;
15112;SDS011;7657;50.140;7.076;2023-03-12T02:36:25;3.23;;;1.40;;
15112;SDS011;7657;50.140;7.076;2023-03-12T02:38:52;4.53;;;1.93;;
15112;SDS011;7657;50.140;7.076;2023-03-12T02:41:21;3.63;;;1.70;;
15112;SDS011;7657;50.140;7.076;2023-03-12T02:43:56;2.53;;;1.70;;
15112;SDS011;7657;50.140;7.076;2023-03-12T02:46:28;2.37;;;1.50;;
15112;SDS011;7657;50.140;7.076;2023-03-12T02:48:57;5.80;;;1.50;;
15112;SDS011;7657;50.140;7.076;2023-03-12T02:51:25;5.53;;;1.60;;
15112;SDS011;7657;50.140;7.076;2023-03-12T02:53:52;4.90;;;1.73;;
15112;SDS011;7657;50.140;7.076;2023-03-12T02:56:20;3.30;;;1.43;;
15112;SDS011;7657;50.140;7.076;2023-03-12T02:58:48;3.57;;;1.33;;
15112;SDS011;7657;50.140;7.076;2023-03-12T03:01:16;3.67;;;1.70;;
15112;SDS011;7657;50.140;7.076;2023-03-12T03:03:44;2.87;;;1.50;;
15112;SDS011;7657;50.140;7.076;2023-03-12T03:06:12;3.77;;;1.60;;
15112;SDS011;7657;50.140;7.076;2023-03-12T03:08:39;4.40;;;1.63;;
15112;SDS011;7657;50.140;7.076;2023-03-12T03:11:07;5.47;;;1.67;;
15112;SDS011;7657;50.140;7.076;2023-03-12T03:13:34;1.93;;;1.50;;
15112;SDS011;7657;50.140;7.076;2023-03-12T03:16:01;2.30;;;1.60;;
15112;SDS011;7657;50.140;7.076;2023-03-12T03:18:29;4.30;;;1.73;;
15112;SDS011;7657;50.140;7.076;2023-03-12T03:20:57;3.70;;;1.63;;
15112;SDS011;7657;50.140;7.076;2023-03-12T03:23:25;2.70;;;1.43;;
15112;SDS011;7657;50.140;7.076;2023-03-12T03:25:52;2.80;;;1.90;;
15112;SDS011;7657;50.140;7.076;2023-03-12T03:28:20;4.43;;;1.77;;
15112;SDS011;7657;50.140;7.076;2023-03-12T03:30:48;3.20;;;1.50;;
15112;SDS011;7657;50.140;7.076;2023-03-12T03:33:17;3.23;;;1.80;;
15112;SDS011;7657;50.140;7.076;2023-03-12T03:35:46;3.80;;;1.63;;
15112;SDS011;7657;50.140;7.076;2023-03-12T03:38:13;4.33;;;1.40;;
15112;SDS011;7657;50.140;7.076;2023-03-12T03:40:40;2.60;;;1.90;;
15112;SDS011;7657;50.140;7.076;2023-03-12T03:43:07;4.67;;;1.90;;
15112;SDS011;7657;50.140;7.076;2023-03-12T03:45:34;3.97;;;1.60;;
15112;SDS011;7657;50.140;7.076;2023-03-12T03:48:01;3.17;;;1.33;;
15112;SDS011;7657;50.140;7.076;2023-03-12T03:50:28;3.37;;;1.40;;
15112;SDS011;7657;50.140;7.076;2023-03-12T03:52:56;4.40;;;1.57;;
15112;SDS011;7657;50.140;7.076;2023-03-12T03:55:23;4.50;;;2.17;;
15112;SDS011;7657;50.140;7.076;2023-03-12T03:57:50;3.80;;;1.80;;
15112;SDS011;7657;50.140;7.076;2023-03-12T04:00:17;2.17;;;1.50;;
15112;SDS011;7657;50.140;7.076;2023-03-12T04:02:44;4.60;;;1.40;;
15112;SDS011;7657;50.140;7.076;2023-03-12T04:05:11;5.47;;;1.50;;
15112;SDS011;7657;50.140;7.076;2023-03-12T04:07:40;3.87;;;1.50;;
15112;SDS011;7657;50.140;7.076;2023-03-12T04:10:09;4.30;;;1.97;;
15112;SDS011;7657;50.140;7.076;2023-03-12T04:12:36;3.73;;;1.60;;
15112;SDS011;7657;50.140;7.076;2023-03-12T04:15:04;3.13;;;1.50;;
15112;SDS011;7657;50.140;7.076;2023-03-12T04:17:31;4.03;;;1.47;;
15112;SDS011;7657;50.140;7.076;2023-03-12T04:19:58;5.77;;;1.40;;
15112;SDS011;7657;50.140;7.076;2023-03-12T04:22:25;3.63;;;1.50;;
15112;SDS011;7657;50.140;7.076;2023-03-12T04:24:52;3.40;;;1.93;;
15112;SDS011;7657;50.140;7.076;2023-03-12T04:27:20;4.37;;;2.00;;
15112;SDS011;7657;50.140;7.076;2023-03-12T04:29:47;7.17;;;2.07;;
15112;SDS011;7657;50.140;7.076;2023-03-12T04:32:14;3.60;;;1.80;;
15112;SDS011;7657;50.140;7.076;2023-03-12T04:34:41;3.20;;;1.30;;
15112;SDS011;7657;50.140;7.076;2023-03-12T04:37:08;1.77;;;1.30;;
15112;SDS011;7657;50.140;7.076;2023-03-12T04:39:37;2.97;;;1.47;;
15112;SDS011;7657;50.140;7.076;2023-03-12T04:42:04;2.93;;;1.70;;
15112;SDS011;7657;50.140;7.076;2023-03-12T04:44:33;4.13;;;1.50;;
15112;SDS011;7657;50.140;7.076;2023-03-12T04:47:01;4.13;;;1.50;;
15112;SDS011;7657;50.140;7.076;2023-03-12T04:49:28;4.03;;;1.37;;
15112;SDS011;7657;50.140;7.076;2023-03-12T04:51:55;3.57;;;1.93;;
15112;SDS011;7657;50.140;7.076;2023-03-12T04:54:22;4.67;;;1.23;;
15112;SDS011;7657;50.140;7.076;2023-03-12T04:56:49;3.97;;;1.57;;
15112;SDS011;7657;50.140;7.076;2023-03-12T04:59:16;2.67;;;1.50;;
15112;SDS011;7657;50.140;7.076;2023-03-12T05:01:44;2.73;;;2.10;;
15112;SDS011;7657;50.140;7.076;2023-03-12T05:04:11;7.47;;;2.07;;
15112;SDS011;7657;50.140;7.076;2023-03-12T05:06:38;2.90;;;1.30;;
15112;SDS011;7657;50.140;7.076;2023-03-12T05:09:05;4.70;;;1.73;;
15112;SDS011;7657;50.140;7.076;2023-03-12T05:11:32;4.90;;;1.67;;
15112;SDS011;7657;50.140;7.076;2023-03-12T05:13:59;4.30;;;1.67;;
15112;SDS011;7657;50.140;7.076;2023-03-12T05:16:26;3.83;;;1.60;;
15112;SDS011;7657;50.140;7.076;2023-03-12T05:18:55;4.17;;;1.77;;
15112;SDS011;7657;50.140;7.076;2023-03-12T05:21:22;3.63;;;1.60;;
15112;SDS011;7657;50.140;7.076;2023-03-12T05:23:48;3.93;;;1.40;;
15112;SDS011;7657;50.140;7.076;2023-03-12T05:26:16;6.53;;;2.00;;
15112;SDS011;7657;50.140;7.076;2023-03-12T05:28:44;4.87;;;2.23;;
15112;SDS011;7657;50.140;7.076;2023-03-12T05:31:11;2.07;;;1.33;;
15112;SDS011;7657;50.140;7.076;2023-03-12T05:33:39;5.37;;;3.67;;
15112;SDS011;7657;50.140;7.076;2023-03-12T05:36:07;5.07;;;2.00;;
15112;SDS011;7657;50.140;7.076;2023-03-12T05:38:35;3.00;;;1.80;;
15112;SDS011;7657;50.140;7.076;2023-03-12T05:41:02;3.77;;;1.47;;
15112;SDS011;7657;50.140;7.076;2023-03-12T05:43:30;4.73;;;1.80;;
15112;SDS011;7657;50.140;7.076;2023-03-12T05:45:58;2.30;;;1.53;;
15112;SDS011;7657;50.140;7.076;2023-03-12T05:48:26;3.47;;;1.70;;
15112;SDS011;7657;50.140;7.076;2023-03-12T05:50:53;6.03;;;2.00;;
15112;SDS011;7657;50.140;7.076;2023-03-12T05:53:21;5.17;;;1.93;;
15112;SDS011;7657;50.140;7.076;2023-03-12T05:55:48;3.03;;;1.93;;
15112;SDS011;7657;50.140;7.076;2023-03-12T05:58:15;2.70;;;1.83;;
15112;SDS011;7657;50.140;7.076;2023-03-12T06:00:42;3.47;;;2.17;;
15112;SDS011;7657;50.140;7.076;2023-03-12T06:03:09;4.33;;;1.43;;
15112;SDS011;7657;50.140;7.076;2023-03-12T06:05:37;4.43;;;1.60;;
15112;SDS011;7657;50.140;7.076;2023-03-12T06:08:04;5.57;;;1.80;;
15112;SDS011;7657;50.140;7.076;2023-03-12T06:10:33;6.97;;;2.20;;
15112;SDS011;7657;50.140;7.076;2023-03-12T06:13:02;5.50;;;2.23;;
15112;SDS011;7657;50.140;7.076;2023-03-12T06:15:29;5.53;;;2.27;;
15112;SDS011;7657;50.140;7.076;2023-03-12T06:17:56;5.63;;;2.10;;
15112;SDS011;7657;50.140;7.076;2023-03-12T06:20:22;7.50;;;2.10;;
15112;SDS011;7657;50.140;7.076;2023-03-12T06:22:49;6.10;;;2.00;;
15112;SDS011;7657;50.140;7.076;2023-03-12T06:25:16;6.53;;;2.70;;
15112;SDS011;7657;50.140;7.076;2023-03-12T06:27:45;7.53;;;2.20;;
15112;SDS011;7657;50.140;7.076;2023-03-12T06:30:12;10.97;;;4.87;;
15112;SDS011;7657;50.140;7.076;2023-03-12T06:32:40;5.90;;;2.80;;
15112;SDS011;7657;50.140;7.076;2023-03-12T06:35:07;17.20;;;8.27;;
15112;SDS011;7657;50.140;7.076;2023-03-12T06:37:34;6.57;;;2.90;;
15112;SDS011;7657;50.140;7.076;2023-03-12T06:40:01;4.67;;;2.00;;
15112;SDS011;7657;50.140;7.076;2023-03-12T06:42:33;2.60;;;1.73;;
15112;SDS011;7657;50.140;7.076;2023-03-12T06:45:02;4.43;;;2.17;;
15112;SDS011;7657;50.140;7.076;2023-03-12T06:47:29;4.47;;;2.30;;
15112;SDS011;7657;50.140;7.076;2023-03-12T06:49:56;5.07;;;2.00;;
15112;SDS011;7657;50.140;7.076;2023-03-12T06:52:23;2.63;;;2.30;;
15112;SDS011;7657;50.140;7.076;2023-03-12T06:54:51;6.43;;;2.20;;
15112;SDS011;7657;50.140;7.076;2023-03-12T06:57:17;4.50;;;2.20;;
15112;SDS011;7657;50.140;7.076;2023-03-12T06:59:44;2.93;;;2.20;;
15112;SDS011;7657;50.140;7.076;2023-03-12T07:02:13;5.97;;;2.23;;
15112;SDS011;7657;50.140;7.076;2023-03-12T07:04:39;6.33;;;2.43;;
15112;SDS011;7657;50.140;7.076;2023-03-12T07:07:07;5.33;;;2.17;;
15112;SDS011;7657;50.140;7.076;2023-03-12T07:09:35;7.40;;;2.93;;
15112;SDS011;7657;50.140;7.076;2023-03-12T07:12:02;8.20;;;3.20;;
15112;SDS011;7657;50.140;7.076;2023-03-12T07:14:29;9.07;;;3.20;;
15112;SDS011;7657;50.140;7.076;2023-03-12T07:16:56;11.77;;;3.33;;
15112;SDS011;7657;50.140;7.076;2023-03-12T07:19:27;4.53;;;2.90;;
15112;SDS011;7657;50.140;7.076;2023-03-12T07:21:54;5.53;;;2.80;;
15112;SDS011;7657;50.140;7.076;2023-03-12T07:24:22;7.00;;;3.10;;
15112;SDS011;7657;50.140;7.076;2023-03-12T07:26:49;5.57;;;3.27;;
15112;SDS011;7657;50.140;7.076;2023-03-12T07:29:15;7.07;;;3.23;;
15112;SDS011;7657;50.140;7.076;2023-03-12T07:31:42;4.97;;;2.80;;
15112;SDS011;7657;50.140;7.076;2023-03-12T07:34:09;4.03;;;2.57;;
15112;SDS011;7657;50.140;7.076;2023-03-12T07:36:37;5.97;;;3.10;;
15112;SDS011;7657;50.140;7.076;2023-03-12T07:39:04;6.43;;;2.90;;
15112;SDS011;7657;50.140;7.076;2023-03-12T07:41:32;8.03;;;4.10;;
15112;SDS011;7657;50.140;7.076;2023-03-12T07:44:01;7.53;;;3.80;;
15112;SDS011;7657;50.140;7.076;2023-03-12T07:46:29;6.17;;;3.30;;
15112;SDS011;7657;50.140;7.076;2023-03-12T07:48:56;8.13;;;4.50;;
15112;SDS011;7657;50.140;7.076;2023-03-12T07:51:23;7.77;;;4.27;;
15112;SDS011;7657;50.140;7.076;2023-03-12T07:53:51;8.53;;;3.97;;
15112;SDS011;7657;50.140;7.076;2023-03-12T07:56:18;7.87;;;4.30;;
15112;SDS011;7657;50.140;7.076;2023-03-12T07:58:45;8.40;;;4.97;;
15112;SDS011;7657;50.140;7.076;2023-03-12T08:01:11;6.87;;;4.30;;
15112;SDS011;7657;50.140;7.076;2023-03-12T08:03:38;6.80;;;4.13;;
15112;SDS011;7657;50.140;7.076;2023-03-12T08:06:05;7.80;;;4.00;;
15112;SDS011;7657;50.140;7.076;2023-03-12T08:08:32;6.53;;;4.00;;
15112;SDS011;7657;50.140;7.076;2023-03-12T08:11:02;7.23;;;4.00;;
15112;SDS011;7657;50.140;7.076;2023-03-12T08:13:29;8.90;;;4.57;;
15112;SDS011;7657;50.140;7.076;2023-03-12T08:15:56;8.00;;;4.37;;
15112;SDS011;7657;50.140;7.076;2023-03-12T08:18:23;10.00;;;5.07;;
15112;SDS011;7657;50.140;7.076;2023-03-12T08:20:50;6.90;;;4.77;;
15112;SDS011;7657;50.140;7.076;2023-03-12T08:23:18;6.37;;;4.60;;
15112;SDS011;7657;50.140;7.076;2023-03-12T08:25:46;7.13;;;4.77;;
15112;SDS011;7657;50.140;7.076;2023-03-12T08:28:15;13.10;;;5.60;;
15112;SDS011;7657;50.140;7.076;2023-03-12T08:30:44;13.50;;;9.93;;
15112;SDS011;7657;50.140;7.076;2023-03-12T08:33:12;11.00;;;7.00;;
15112;SDS011;7657;50.140;7.076;2023-03-12T08:35:38;10.80;;;6.80;;
15112;SDS011;7657;50.140;7.076;2023-03-12T08:38:05;14.20;;;7.33;;
15112;SDS011;7657;50.140;7.076;2023-03-12T08:40:32;21.63;;;12.73;;
15112;SDS011;7657;50.140;7.076;2023-03-12T08:43:00;15.00;;;9.00;;
15112;SDS011;7657;50.140;7.076;2023-03-12T08:45:28;18.40;;;10.20;;
15112;SDS011;7657;50.140;7.076;2023-03-12T08:47:55;12.20;;;7.77;;
15112;SDS011;7657;50.140;7.076;2023-03-12T08:50:22;17.07;;;11.93;;
15112;SDS011;7657;50.140;7.076;2023-03-12T08:52:53;27.57;;;17.27;;
15112;SDS011;7657;50.140;7.076;2023-03-12T08:55:20;20.17;;;14.50;;
15112;SDS011;7657;50.140;7.076;2023-03-12T08:57:46;15.90;;;10.23;;
15112;SDS011;7657;50.140;7.076;2023-03-12T09:00:14;15.53;;;11.53;;
15112;SDS011;7657;50.140;7.076;2023-03-12T09:02:43;17.80;;;11.93;;
15112;SDS011;7657;50.140;7.076;2023-03-12T09:05:11;16.67;;;12.60;;
15112;SDS011;7657;50.140;7.076;2023-03-12T09:07:38;11.77;;;8.73;;
15112;SDS011;7657;50.140;7.076;2023-03-12T09:10:06;12.13;;;8.37;;
15112;SDS011;7657;50.140;7.076;2023-03-12T09:12:33;13.47;;;8.03;;
15112;SDS011;7657;50.140;7.076;2023-03-12T09:15:00;12.60;;;8.27;;
15112;SDS011;7657;50.140;7.076;2023-03-12T09:17:27;11.57;;;7.23;;
15112;SDS011;7657;50.140;7.076;2023-03-12T09:19:56;9.70;;;7.37;;
15112;SDS011;7657;50.140;7.076;2023-03-12T09:22:23;12.37;;;9.97;;
15112;SDS011;7657;50.140;7.076;2023-03-12T09:24:50;11.57;;;8.03;;
15112;SDS011;7657;50.140;7.076;2023-03-12T09:27:17;13.73;;;8.90;;
15112;SDS011;7657;50.140;7.076;2023-03-12T09:29:43;11.50;;;8.17;;
15112;SDS011;7657;50.140;7.076;2023-03-12T09:32:10;11.43;;;8.03;;
15112;SDS011;7657;50.140;7.076;2023-03-12T09:34:40;12.07;;;8.63;;
15112;SDS011;7657;50.140;7.076;2023-03-12T09:37:08;10.80;;;7.43;;
15112;SDS011;7657;50.140;7.076;2023-03-12T09:39:35;16.57;;;10.63;;
15112;SDS011;7657;50.140;7.076;2023-03-12T09:42:02;12.03;;;7.93;;
15112;SDS011;7657;50.140;7.076;2023-03-12T09:44:32;17.53;;;14.57;;
15112;SDS011;7657;50.140;7.076;2023-03-12T09:47:02;12.00;;;8.40;;
15112;SDS011;7657;50.140;7.076;2023-03-12T09:49:34;12.23;;;8.70;;
15112;SDS011;7657;50.140;7.076;2023-03-12T09:52:07;17.60;;;11.47;;
15112;SDS011;7657;50.140;7.076;2023-03-12T09:54:43;14.07;;;11.33;;
15112;SDS011;7657;50.140;7.076;2023-03-12T09:57:19;12.03;;;8.87;;
15112;SDS011;7657;50.140;7.076;2023-03-12T09:59:49;13.70;;;9.10;;
15112;SDS011;7657;50.140;7.076;2023-03-12T10:02:25;18.80;;;12.30;;
15112;SDS011;7657;50.140;7.076;2023-03-12T10:05:13;14.70;;;12.13;;
15112;SDS011;7657;50.140;7.076;2023-03-12T10:07:47;17.97;;;16.13;;
15112;SDS011;7657;50.140;7.076;2023-03-12T10:10:27;16.60;;;13.20;;
15112;SDS011;7657;50.140;7.076;2023-03-12T10:13:08;15.30;;;10.00;;
15112;SDS011;7657;50.140;7.076;2023-03-12T10:15:49;15.27;;;9.60;;
15112;SDS011;7657;50.140;7.076;2023-03-12T10:18:27;14.50;;;10.47;;
15112;SDS011;7657;50.140;7.076;2023-03-12T10:21:09;14.73;;;10.93;;
15112;SDS011;7657;50.140;7.076;2023-03-12T10:23:45;13.20;;;9.37;;
15112;SDS011;7657;50.140;7.076;2023-03-12T10:26:22;12.63;;;9.43;;
15112;SDS011;7657;50.140;7.076;2023-03-12T10:28:50;14.97;;;10.13;;
15112;SDS011;7657;50.140;7.076;2023-03-12T10:31:24;13.53;;;8.43;;
15112;SDS011;7657;50.140;7.076;2023-03-12T10:33:54;12.17;;;8.70;;
15112;SDS011;7657;50.140;7.076;2023-03-12T10:36:24;13.07;;;9.77;;
15112;SDS011;7657;50.140;7.076;2023-03-12T10:38:54;14.43;;;9.80;;
15112;SDS011;7657;50.140;7.076;2023-03-12T10:41:22;16.53;;;10.37;;
15112;SDS011;7657;50.140;7.076;2023-03-12T10:43:50;16.43;;;11.97;;
15112;SDS011;7657;50.140;7.076;2023-03-12T10:49:26;12.87;;;9.20;;
15112;SDS011;7657;50.140;7.076;2023-03-12T10:51:58;13.93;;;8.83;;
15112;SDS011;7657;50.140;7.076;2023-03-12T10:54:29;12.50;;;9.03;;
15112;SDS011;7657;50.140;7.076;2023-03-12T10:56:57;20.37;;;15.53;;
15112;SDS011;7657;50.140;7.076;2023-03-12T10:59:26;17.07;;;12.27;;
15112;SDS011;7657;50.140;7.076;2023-03-12T11:01:56;16.53;;;11.80;;
15112;SDS011;7657;50.140;7.076;2023-03-12T11:04:25;20.60;;;17.00;;
15112;SDS011;7657;50.140;7.076;2023-03-12T11:07:14;17.90;;;13.50;;
15112;SDS011;7657;50.140;7.076;2023-03-12T11:09:51;15.13;;;9.63;;
15112;SDS011;7657;50.140;7.076;2023-03-12T11:12:37;12.07;;;7.83;;
15112;SDS011;7657;50.140;7.076;2023-03-12T11:15:17;9.73;;;7.13;;
15112;SDS011;7657;50.140;7.076;2023-03-12T11:17:45;13.60;;;9.63;;
15112;SDS011;7657;50.140;7.076;2023-03-12T11:20:17;21.27;;;14.63;;
15112;SDS011;7657;50.140;7.076;2023-03-12T11:22:51;12.47;;;7.53;;
15112;SDS011;7657;50.140;7.076;2023-03-12T11:25:21;25.07;;;16.87;;
15112;SDS011;7657;50.140;7.076;2023-03-12T11:27:50;12.83;;;8.50;;
15112;SDS011;7657;50.140;7.076;2023-03-12T11:30:21;11.07;;;7.67;;
15112;SDS011;7657;50.140;7.076;2023-03-12T11:32:51;12.80;;;7.93;;
15112;SDS011;7657;50.140;7.076;2023-03-12T11:35:20;11.97;;;7.60;;
15112;SDS011;7657;50.140;7.076;2023-03-12T11:38:00;10.90;;;7.17;;
15112;SDS011;7657;50.140;7.076;2023-03-12T11:40:38;9.90;;;7.67;;
15112;SDS011;7657;50.140;7.076;2023-03-12T11:43:38;11.40;;;7.50;;
15112;SDS011;7657;50.140;7.076;2023-03-12T11:46:29;13.70;;;9.17;;
15112;SDS011;7657;50.140;7.076;2023-03-12T11:49:08;11.67;;;7.57;;
15112;SDS011;7657;50.140;7.076;2023-03-12T11:51:48;13.27;;;7.83;;
15112;SDS011;7657;50.140;7.076;2023-03-12T11:57:26;11.00;;;7.10;;
15112;SDS011;7657;50.140;7.076;2023-03-12T12:00:03;13.70;;;7.97;;
15112;SDS011;7657;50.140;7.076;2023-03-12T12:02:42;12.97;;;8.00;;
15112;SDS011;7657;50.140;7.076;2023-03-12T12:05:26;15.60;;;7.70;;
15112;SDS011;7657;50.140;7.076;2023-03-12T12:08:16;15.80;;;8.27;;
15112;SDS011;7657;50.140;7.076;2023-03-12T12:10:52;15.50;;;7.77;;
15112;SDS011;7657;50.140;7.076;2023-03-12T12:13:29;10.97;;;7.37;;
15112;SDS011;7657;50.140;7.076;2023-03-12T12:16:08;12.03;;;6.73;;
15112;SDS011;7657;50.140;7.076;2023-03-12T12:18:50;13.57;;;7.40;;
15112;SDS011;7657;50.140;7.076;2023-03-12T12:21:30;11.47;;;5.93;;
15112;SDS011;7657;50.140;7.076;2023-03-12T12:24:11;14.43;;;6.53;;
15112;SDS011;7657;50.140;7.076;2023-03-12T12:26:45;10.63;;;6.03;;
15112;SDS011;7657;50.140;7.076;2023-03-12T12:29:23;13.37;;;6.33;;
15112;SDS011;7657;50.140;7.076;2023-03-12T12:31:58;10.33;;;4.97;;
15112;SDS011;7657;50.140;7.076;2023-03-12T12:34:36;11.67;;;5.50;;
15112;SDS011;7657;50.140;7.076;2023-03-12T12:37:30;10.27;;;5.40;;
15112;SDS011;7657;50.140;7.076;2023-03-12T12:40:15;12.57;;;5.40;;
15112;SDS011;7657;50.140;7.076;2023-03-12T12:42:48;10.63;;;5.27;;
15112;SDS011;7657;50.140;7.076;2023-03-12T12:45:23;9.90;;;4.90;;
15112;SDS011;7657;50.140;7.076;2023-03-12T12:47:52;9.60;;;5.03;;
15112;SDS011;7657;50.140;7.076;2023-03-12T12:50:23;10.40;;;5.07;;
15112;SDS011;7657;50.140;7.076;2023-03-12T12:52:57;12.40;;;4.67;;
15112;SDS011;7657;50.140;7.076;2023-03-12T12:55:31;12.20;;;4.53;;
15112;SDS011;7657;50.140;7.076;2023-03-12T12:58:02;11.13;;;4.70;;
15112;SDS011;7657;50.140;7.076;2023-03-12T13:00:38;11.93;;;5.17;;
15112;SDS011;7657;50.140;7.076;2023-03-12T13:03:12;11.47;;;4.73;;
15112;SDS011;7657;50.140;7.076;2023-03-12T13:08:31;10.63;;;4.38;;
15112;SDS011;7657;50.140;7.076;2023-03-12T13:11:22;6.88;;;3.92;;
15112;SDS011;7657;50.140;7.076;2023-03-12T13:16:40;10.73;;;4.05;;
15112;SDS011;7657;50.140;7.076;2023-03-12T13:19:20;18.38;;;7.15;;
15112;SDS011;7657;50.140;7.076;2023-03-12T13:21:58;18.73;;;9.13;;
15112;SDS011;7657;50.140;7.076;2023-03-12T13:24:34;13.45;;;4.43;;
15112;SDS011;7657;50.140;7.076;2023-03-12T13:27:12;12.23;;;4.47;;
15112;SDS011;7657;50.140;7.076;2023-03-12T13:29:44;15.75;;;6.95;;
15112;SDS011;7657;50.140;7.076;2023-03-12T13:35:05;10.25;;;5.15;;
15112;SDS011;7657;50.140;7.076;2023-03-12T13:37:58;11.52;;;3.53;;
15112;SDS011;7657;50.140;7.076;2023-03-12T13:40:38;9.93;;;3.38;;
15112;SDS011;7657;50.140;7.076;2023-03-12T13:43:30;10.10;;;3.67;;
15112;SDS011;7657;50.140;7.076;2023-03-12T13:46:06;8.55;;;3.70;;
15112;SDS011;7657;50.140;7.076;2023-03-12T13:48:47;8.02;;;2.97;;
15112;SDS011;7657;50.140;7.076;2023-03-12T13:51:16;12.45;;;3.65;;
15112;SDS011;7657;50.140;7.076;2023-03-12T13:53:46;9.43;;;2.90;;
15112;SDS011;7657;50.140;7.076;2023-03-12T13:56:16;8.25;;;3.47;;
15112;SDS011;7657;50.140;7.076;2023-03-12T13:58:47;9.23;;;2.67;;
15112;SDS011;7657;50.140;7.076;2023-03-12T14:01:19;8.43;;;2.80;;
15112;SDS011;7657;50.140;7.076;2023-03-12T14:03:53;12.32;;;3.67;;
15112;SDS011;7657;50.140;7.076;2023-03-12T14:06:23;8.07;;;3.08;;
15112;SDS011;7657;50.140;7.076;2023-03-12T14:08:56;11.15;;;3.30;;
15112;SDS011;7657;50.140;7.076;2023-03-12T14:11:38;10.80;;;2.97;;
15112;SDS011;7657;50.140;7.076;2023-03-12T14:17:20;12.65;;;2.90;;
15112;SDS011;7657;50.140;7.076;2023-03-12T14:19:55;8.05;;;2.33;;
15112;SDS011;7657;50.140;7.076;2023-03-12T14:22:26;9.25;;;2.85;;
15112;SDS011;7657;50.140;7.076;2023-03-12T14:24:57;11.20;;;3.35;;
15112;SDS011;7657;50.140;7.076;2023-03-12T14:27:28;8.80;;;3.13;;
15112;SDS011;7657;50.140;7.076;2023-03-12T14:30:09;12.60;;;3.05;;
15112;SDS011;7657;50.140;7.076;2023-03-12T14:32:38;12.43;;;3.95;;
15112;SDS011;7657;50.140;7.076;2023-03-12T14:35:13;15.77;;;4.05;;
15112;SDS011;7657;50.140;7.076;2023-03-12T14:37:45;12.57;;;3.78;;
15112;SDS011;7657;50.140;7.076;2023-03-12T14:40:21;12.73;;;3.65;;
15112;SDS011;7657;50.140;7.076;2023-03-12T14:42:50;7.65;;;2.60;;
15112;SDS011;7657;50.140;7.076;2023-03-12T14:45:20;9.68;;;2.60;;
15112;SDS011;7657;50.140;7.076;2023-03-12T14:47:51;10.52;;;3.22;;
15112;SDS011;7657;50.140;7.076;2023-03-12T14:50:22;12.95;;;3.65;;
15112;SDS011;7657;50.140;7.076;2023-03-12T14:52:50;8.73;;;2.40;;
15112;SDS011;7657;50.140;7.076;2023-03-12T14:55:19;11.18;;;2.85;;
15112;SDS011;7657;50.140;7.076;2023-03-12T14:57:47;10.45;;;3.47;;
15112;SDS011;7657;50.140;7.076;2023-03-12T15:00:21;7.80;;;2.53;;
15112;SDS011;7657;50.140;7.076;2023-03-12T15:02:50;10.23;;;3.70;;
15112;SDS011;7657;50.140;7.076;2023-03-12T15:05:21;10.95;;;4.00;;
15112;SDS011;7657;50.140;7.076;2023-03-12T15:07:49;12.25;;;3.05;;
15112;SDS011;7657;50.140;7.076;2023-03-12T15:10:19;17.13;;;3.45;;
15112;SDS011;7657;50.140;7.076;2023-03-12T15:12:48;15.15;;;3.63;;
15112;SDS011;7657;50.140;7.076;2023-03-12T15:15:23;12.35;;;4.28;;
15112;SDS011;7657;50.140;7.076;2023-03-12T15:18:00;12.38;;;3.08;;
15112;SDS011;7657;50.140;7.076;2023-03-12T15:20:29;11.93;;;4.60;;
15112;SDS011;7657;50.140;7.076;2023-03-12T15:22:56;15.23;;;3.47;;
15112;SDS011;7657;50.140;7.076;2023-03-12T15:25:26;16.65;;;3.63;;
15112;SDS011;7657;50.140;7.076;2023-03-12T15:28:02;9.45;;;3.33;;
15112;SDS011;7657;50.140;7.076;2023-03-12T15:30:30;14.85;;;4.22;;